Bayou Rouge, Louisiana
Current Conditions -  °F | °C
As of 3:55 AM on Friday 28 Nov 2014 (Local Time) from KHZR Reporting Station
Clear Clear  
Wind Chill: 37°   Ceiling: Unl
Heat Index: 37°   Visibility: 10mi
Dew Point: 32°   Wind: 3mph
Humidity: 84%   Direction: 90°E
Pressure: 30.42"   Gusts: NA
Location:  30.6648°N, 91.7944°W
Report Text: KHZR 280955Z AUTO 09003KT 10SM CLR 03/00 A3042 RMK AO2 T00250000
Loading
Personal Weather Stations






























Interactive Weather Map New forecast layout! Learn more

10-Day Weather Forecast

Advertisements
Track Severe Weather on mobile